Time;durP1;ratioP1;P1;durP2;ratioP2;P2;SDS_P1;SDS_P2;PMS_P1;PMS_P2;Temp;Humidity;BMP_temperature;BMP_pressure;BME280_temperature;BME280_humidity;BME280_pressure;Samples;Min_cycle;Max_cycle;Signal;HPM_P1;HPM_P2
2021/01/22 05:47:38;;;;;;;3.42;1.25;;;;;;;;;;6177232;23;20029;-80
2021/01/22 05:50:03;;;;;;;3.53;1.20;;;;;;;;;;6178840;23;20065;-83
2021/01/22 05:52:29;;;;;;;3.67;1.30;;;;;;;;;;6157369;23;19998;-82
2021/01/22 05:54:55;;;;;;;2.85;0.82;;;;;;;;;;6129271;23;20764;-81
2021/01/22 05:57:20;;;;;;;2.97;1.20;;;;;;;;;;6129599;23;20092;-83
2021/01/22 05:59:46;;;;;;;5.13;1.00;;;;;;;;;;6129575;23;20095;-83
2021/01/22 06:02:29;;;;;;;5.15;1.38;;;;;;;;;;6128889;23;20037;-86
2021/01/22 06:05:08;;;;;;;5.68;2.10;;;;;;;;;;6128464;23;20005;-86
2021/01/22 06:07:41;;;;;;;6.95;1.42;;;;;;;;;;6128039;23;20018;-86
2021/01/22 06:10:13;;;;;;;7.78;2.35;;;;;;;;;;6128612;23;20013;-86
2021/01/22 06:12:39;;;;;;;5.70;1.40;;;;;;;;;;6154488;23;20006;-85
2021/01/22 06:17:23;;;;;;;5.93;1.38;;;;;;;;;;5099064;28;20380;-83
2021/01/22 06:19:48;;;;;;;5.63;2.10;;;;;;;;;;5062496;28;20040;-83
2021/01/22 06:22:18;;;;;;;10.68;1.77;;;;;;;;;;5082210;28;20033;-83
2021/01/22 06:24:44;;;;;;;3.45;1.40;;;;;;;;;;5088622;28;20055;-85
2021/01/22 06:27:10;;;;;;;4.57;1.27;;;;;;;;;;5063882;28;20385;-84
2021/01/22 06:29:37;;;;;;;5.80;1.60;;;;;;;;;;5073121;28;20028;-84
2021/01/22 06:32:03;;;;;;;3.70;1.42;;;;;;;;;;5066580;28;20020;-84
2021/01/22 06:34:31;;;;;;;5.35;1.50;;;;;;;;;;5074865;28;20021;-84
2021/01/22 06:36:57;;;;;;;5.95;1.35;;;;;;;;;;5068128;28;20024;-84
2021/01/22 06:39:23;;;;;;;7.60;1.75;;;;;;;;;;5072270;28;20028;-84
2021/01/22 06:41:49;;;;;;;3.58;1.30;;;;;;;;;;5072154;28;20017;-84
2021/01/22 06:44:15;;;;;;;4.65;1.30;;;;;;;;;;5072137;28;20028;-84
2021/01/22 06:46:40;;;;;;;6.65;2.13;;;;;;;;;;5053586;28;20048;-84
2021/01/22 06:49:06;;;;;;;7.20;2.15;;;;;;;;;;5051359;28;20025;-84
2021/01/22 06:51:36;;;;;;;7.38;2.10;;;;;;;;;;5070419;28;20127;-84
2021/01/22 06:54:07;;;;;;;5.35;1.60;;;;;;;;;;5053994;28;20028;-84
2021/01/22 06:56:34;;;;;;;5.60;1.98;;;;;;;;;;5079177;28;20041;-84
2021/01/22 06:59:18;;;;;;;6.13;1.85;;;;;;;;;;5061093;28;20465;-84
2021/01/22 07:01:44;;;;;;;4.20;1.30;;;;;;;;;;5077133;28;20550;-85
2021/01/22 07:04:09;;;;;;;7.65;2.47;;;;;;;;;;5052331;28;20048;-84
2021/01/22 07:06:37;;;;;;;10.15;2.45;;;;;;;;;;5051295;28;20063;-84
2021/01/22 07:09:04;;;;;;;7.95;2.95;;;;;;;;;;5073947;28;20028;-83
2021/01/22 07:11:49;;;;;;;22.13;9.20;;;;;;;;;;5050230;28;20428;-83
2021/01/22 07:14:34;;;;;;;15.32;5.85;;;;;;;;;;5059103;28;20025;-83
2021/01/22 07:17:22;;;;;;;6.55;2.85;;;;;;;;;;5074478;28;20482;-83
2021/01/22 07:19:53;;;;;;;9.68;2.38;;;;;;;;;;5060927;28;20033;-84
2021/01/22 07:22:19;;;;;;;7.05;1.90;;;;;;;;;;5050706;28;20049;-83
2021/01/22 07:24:46;;;;;;;5.97;1.50;;;;;;;;;;5081056;28;20362;-84
2021/01/22 07:27:13;;;;;;;3.22;1.27;;;;;;;;;;5050820;28;20025;-83
2021/01/22 07:29:38;;;;;;;5.82;1.95;;;;;;;;;;5043186;28;20397;-83
2021/01/22 07:32:06;;;;;;;5.57;1.52;;;;;;;;;;5047899;28;20025;-84
2021/01/22 07:34:42;;;;;;;6.30;1.65;;;;;;;;;;5035120;28;20062;-83
2021/01/22 07:37:09;;;;;;;5.72;1.70;;;;;;;;;;5047399;28;20028;-83
2021/01/22 07:39:36;;;;;;;6.95;2.10;;;;;;;;;;5060133;28;20389;-84
2021/01/22 07:42:03;;;;;;;6.97;1.80;;;;;;;;;;5056190;28;20368;-83
2021/01/22 07:44:28;;;;;;;7.25;2.65;;;;;;;;;;5054624;28;20014;-84
2021/01/22 07:46:54;;;;;;;10.77;2.25;;;;;;;;;;5039180;28;20055;-83
2021/01/22 07:49:20;;;;;;;8.35;2.00;;;;;;;;;;5057093;28;20053;-83
2021/01/22 07:51:46;;;;;;;12.50;2.70;;;;;;;;;;5041188;28;20029;-83
2021/01/22 07:54:13;;;;;;;9.80;2.47;;;;;;;;;;5045225;28;20037;-83
2021/01/22 07:56:39;;;;;;;6.22;1.95;;;;;;;;;;5045769;28;20767;-83
2021/01/22 07:59:06;;;;;;;4.30;1.52;;;;;;;;;;5058556;28;20362;-84
2021/01/22 08:01:32;;;;;;;12.35;2.80;;;;;;;;;;5039571;28;20025;-83
2021/01/22 08:03:57;;;;;;;13.23;5.57;;;;;;;;;;5040413;28;20070;-83
2021/01/22 08:06:23;;;;;;;44.08;23.60;;;;;;;;;;5059730;28;20067;-85
2021/01/22 08:09:03;;;;;;;80.32;43.00;;;;;;;;;;5072358;28;20448;-84
2021/01/22 08:11:29;;;;;;;83.03;44.22;;;;;;;;;;5062590;28;20032;-84
2021/01/22 08:13:54;;;;;;;128.90;61.65;;;;;;;;;;5051050;28;20026;-83
2021/01/22 08:16:23;;;;;;;61.88;30.77;;;;;;;;;;5052907;28;20025;-83
2021/01/22 08:18:49;;;;;;;45.90;19.75;;;;;;;;;;5053710;28;20014;-83
2021/01/22 08:21:15;;;;;;;134.23;67.78;;;;;;;;;;5053302;28;20056;-83
2021/01/22 08:23:44;;;;;;;118.43;57.03;;;;;;;;;;5033481;28;20029;-84
2021/01/22 08:26:10;;;;;;;109.95;58.55;;;;;;;;;;5038316;28;20030;-84
2021/01/22 08:28:36;;;;;;;75.35;40.40;;;;;;;;;;5054760;28;20440;-84
2021/01/22 08:31:02;;;;;;;94.82;52.05;;;;;;;;;;5034762;28;20092;-83
2021/01/22 08:33:28;;;;;;;58.67;34.83;;;;;;;;;;5029755;28;20060;-84
2021/01/22 08:35:54;;;;;;;51.53;30.27;;;;;;;;;;5042917;28;20017;-84
2021/01/22 08:38:20;;;;;;;78.72;43.63;;;;;;;;;;5033814;28;20026;-84
2021/01/22 08:40:46;;;;;;;57.83;31.30;;;;;;;;;;5050338;28;20029;-84
2021/01/22 08:43:15;;;;;;;38.63;21.08;;;;;;;;;;5036522;28;20021;-84
2021/01/22 08:45:41;;;;;;;10.30;4.95;;;;;;;;;;5058252;28;20067;-84
2021/01/22 08:48:07;;;;;;;12.52;4.10;;;;;;;;;;5055939;28;20029;-85
2021/01/22 08:50:33;;;;;;;9.43;2.47;;;;;;;;;;5047941;28;20025;-83
2021/01/22 08:53:09;;;;;;;11.35;3.47;;;;;;;;;;5039287;28;20078;-83
2021/01/22 08:55:35;;;;;;;10.95;3.22;;;;;;;;;;5029669;28;20496;-83
2021/01/22 08:58:01;;;;;;;10.27;2.95;;;;;;;;;;5052976;28;20013;-83
2021/01/22 09:00:27;;;;;;;8.07;2.28;;;;;;;;;;5037094;28;20021;-83
2021/01/22 09:02:52;;;;;;;8.35;2.40;;;;;;;;;;5050116;28;20021;-83
2021/01/22 09:05:18;;;;;;;7.93;1.85;;;;;;;;;;5045645;28;20017;-83
2021/01/22 09:07:45;;;;;;;8.10;2.45;;;;;;;;;;5030932;28;20409;-83
2021/01/22 09:10:23;;;;;;;9.27;2.70;;;;;;;;;;5032106;28;20075;-83
2021/01/22 09:12:48;;;;;;;7.95;2.38;;;;;;;;;;5057491;28;20017;-83
2021/01/22 09:15:14;;;;;;;12.07;2.53;;;;;;;;;;5054877;28;20440;-83
2021/01/22 09:17:44;;;;;;;9.48;2.88;;;;;;;;;;5056406;28;20107;-84
2021/01/22 09:20:26;;;;;;;9.13;2.50;;;;;;;;;;5050941;28;20028;-83
2021/01/22 09:22:53;;;;;;;13.98;2.50;;;;;;;;;;5052974;28;20107;-83
2021/01/22 09:25:23;;;;;;;6.75;1.75;;;;;;;;;;5056492;28;20062;-84
2021/01/22 09:27:50;;;;;;;7.47;2.77;;;;;;;;;;5041984;28;20035;-83
2021/01/22 09:30:23;;;;;;;8.18;2.35;;;;;;;;;;5050683;28;20021;-84
2021/01/22 09:32:49;;;;;;;54.35;25.77;;;;;;;;;;5048519;28;20029;-83
2021/01/22 09:35:16;;;;;;;20.77;9.80;;;;;;;;;;5049668;28;20036;-84
2021/01/22 09:37:41;;;;;;;13.45;5.90;;;;;;;;;;5033634;28;20025;-83
2021/01/22 09:40:08;;;;;;;13.23;4.60;;;;;;;;;;5048302;28;20025;-83
2021/01/22 09:42:34;;;;;;;9.07;3.30;;;;;;;;;;5049136;28;20024;-84
2021/01/22 09:45:00;;;;;;;43.33;23.95;;;;;;;;;;5042765;28;20496;-85
2021/01/22 09:47:25;;;;;;;85.05;50.40;;;;;;;;;;5041016;28;20024;-83
2021/01/22 09:49:51;;;;;;;45.13;27.88;;;;;;;;;;5043178;28;20111;-83
2021/01/22 09:52:16;;;;;;;12.25;4.22;;;;;;;;;;5044072;28;20116;-84
2021/01/22 09:54:42;;;;;;;10.30;3.42;;;;;;;;;;5043332;28;20491;-83
2021/01/22 09:57:08;;;;;;;6.03;2.30;;;;;;;;;;5067952;28;20028;-84
2021/01/22 09:59:34;;;;;;;11.93;2.90;;;;;;;;;;5054820;28;20022;-83
2021/01/22 10:02:00;;;;;;;8.90;2.40;;;;;;;;;;5036217;28;20411;-83
2021/01/22 10:04:25;;;;;;;6.38;1.95;;;;;;;;;;5048818;28;20020;-84
2021/01/22 10:06:51;;;;;;;8.90;3.08;;;;;;;;;;5039050;28;20047;-83
2021/01/22 10:09:17;;;;;;;12.25;3.08;;;;;;;;;;5052601;28;19995;-85
2021/01/22 10:11:42;;;;;;;9.68;3.72;;;;;;;;;;5034661;28;20428;-84
2021/01/22 10:14:08;;;;;;;12.55;3.08;;;;;;;;;;5028878;28;20502;-83
2021/01/22 10:16:34;;;;;;;12.23;3.80;;;;;;;;;;5047827;28;20108;-83
2021/01/22 10:19:00;;;;;;;12.90;4.60;;;;;;;;;;5030170;28;20025;-83
2021/01/22 10:21:26;;;;;;;12.02;5.18;;;;;;;;;;5032041;28;20025;-84
2021/01/22 10:23:52;;;;;;;14.13;5.03;;;;;;;;;;5050284;28;20489;-83
2021/01/22 10:26:19;;;;;;;15.98;4.15;;;;;;;;;;5032625;28;20049;-85
2021/01/22 10:28:45;;;;;;;11.38;3.72;;;;;;;;;;5041280;28;20029;-84
2021/01/22 10:33:29;;;;;;;4.10;1.77;;;;;;;;;;5076563;28;20354;-83
2021/01/22 10:35:55;;;;;;;7.45;4.50;;;;;;;;;;5057020;28;20035;-84
2021/01/22 10:38:23;;;;;;;8.27;4.03;;;;;;;;;;5059501;28;20467;-84
2021/01/22 10:40:49;;;;;;;3.85;1.75;;;;;;;;;;5047303;28;20061;-83
2021/01/22 10:43:15;;;;;;;2.78;1.10;;;;;;;;;;5065444;28;20060;-83
2021/01/22 10:45:40;;;;;;;3.10;1.00;;;;;;;;;;5049988;28;20021;-84
2021/01/22 10:48:06;;;;;;;2.85;1.10;;;;;;;;;;5045455;28;20014;-83
2021/01/22 10:50:32;;;;;;;3.63;1.00;;;;;;;;;;5067216;28;20031;-83
2021/01/22 10:52:58;;;;;;;2.00;0.77;;;;;;;;;;5045594;28;20095;-83
2021/01/22 10:55:23;;;;;;;2.05;0.82;;;;;;;;;;5067464;28;20017;-83
2021/01/22 10:57:49;;;;;;;6.38;2.63;;;;;;;;;;5049869;28;20052;-83
2021/01/22 11:00:15;;;;;;;2.90;1.10;;;;;;;;;;5045211;28;20126;-83
2021/01/22 11:02:41;;;;;;;1.98;0.60;;;;;;;;;;5058478;28;20029;-84
2021/01/22 11:05:07;;;;;;;1.48;0.60;;;;;;;;;;5042265;28;20039;-83
2021/01/22 11:07:33;;;;;;;1.75;0.82;;;;;;;;;;5043628;28;20025;-84
2021/01/22 11:09:59;;;;;;;1.60;0.63;;;;;;;;;;5044101;28;20111;-83
2021/01/22 11:12:24;;;;;;;1.38;0.63;;;;;;;;;;5042463;28;20133;-84
2021/01/22 11:14:50;;;;;;;1.90;0.80;;;;;;;;;;5048029;28;20115;-84
2021/01/22 11:17:16;;;;;;;1.75;0.80;;;;;;;;;;5042372;28;20126;-84
2021/01/22 11:19:41;;;;;;;1.42;0.60;;;;;;;;;;5040234;28;20021;-83
2021/01/22 11:22:07;;;;;;;0.70;0.40;;;;;;;;;;5046834;28;20024;-83
2021/01/22 11:24:36;;;;;;;5.32;2.83;;;;;;;;;;5062374;28;20116;-84
2021/01/22 11:27:01;;;;;;;5.13;2.85;;;;;;;;;;5047155;28;20059;-84
2021/01/22 11:29:27;;;;;;;2.75;1.73;;;;;;;;;;5062131;28;20420;-84
2021/01/22 11:31:53;;;;;;;3.17;1.27;;;;;;;;;;5054020;28;20039;-84
2021/01/22 11:34:18;;;;;;;4.75;2.00;;;;;;;;;;5044508;28;20053;-84
2021/01/22 11:36:44;;;;;;;10.20;5.25;;;;;;;;;;5079916;28;20031;-84
2021/01/22 11:39:10;;;;;;;5.38;2.92;;;;;;;;;;5053862;28;20112;-85
2021/01/22 11:41:35;;;;;;;3.95;1.95;;;;;;;;;;5039917;28;20123;-85
2021/01/22 11:44:01;;;;;;;5.47;4.07;;;;;;;;;;5033915;28;20067;-85
2021/01/22 11:48:47;;;;;;;2.92;1.55;;;;;;;;;;5104178;27;20355;-84
2021/01/22 11:51:13;;;;;;;2.47;1.20;;;;;;;;;;5096704;28;20075;-85
2021/01/22 11:53:38;;;;;;;2.00;1.05;;;;;;;;;;5099234;28;20121;-84
2021/01/22 11:56:04;;;;;;;1.67;0.80;;;;;;;;;;5100582;28;19998;-84
2021/01/22 11:58:30;;;;;;;2.45;1.30;;;;;;;;;;5100353;28;20086;-84
2021/01/22 12:00:55;;;;;;;3.17;1.50;;;;;;;;;;5096060;28;20051;-84
2021/01/22 12:03:23;;;;;;;3.17;1.60;;;;;;;;;;5117833;22;20111;-84
2021/01/22 12:05:49;;;;;;;2.50;1.00;;;;;;;;;;5097302;28;20059;-84
2021/01/22 12:08:14;;;;;;;2.40;0.95;;;;;;;;;;5077472;28;20088;-80
2021/01/22 12:10:40;;;;;;;1.50;0.60;;;;;;;;;;5079498;28;20023;-84
2021/01/22 12:13:06;;;;;;;1.75;0.50;;;;;;;;;;5083938;28;20050;-84
2021/01/22 12:15:31;;;;;;;1.13;0.50;;;;;;;;;;5120438;28;20115;-83
2021/01/22 12:17:57;;;;;;;2.42;1.00;;;;;;;;;;5110655;28;20044;-82
2021/01/22 12:20:23;;;;;;;1.63;0.70;;;;;;;;;;5097709;28;20090;-84
2021/01/22 12:22:49;;;;;;;4.82;0.80;;;;;;;;;;5092594;28;20031;-81
2021/01/22 12:25:14;;;;;;;2.78;1.08;;;;;;;;;;5086753;28;20054;-83
2021/01/22 12:27:40;;;;;;;2.67;0.90;;;;;;;;;;5087913;28;20032;-83
2021/01/22 12:30:06;;;;;;;1.85;0.80;;;;;;;;;;5102370;28;20020;-84
2021/01/22 12:32:32;;;;;;;4.05;1.92;;;;;;;;;;5091482;28;20106;-84
2021/01/22 12:34:58;;;;;;;2.88;1.25;;;;;;;;;;5087101;28;20027;-83
2021/01/22 12:37:26;;;;;;;3.17;1.55;;;;;;;;;;5086523;28;20034;-82
2021/01/22 12:39:52;;;;;;;5.38;2.00;;;;;;;;;;5106978;28;20036;-83
2021/01/22 12:42:18;;;;;;;6.25;3.00;;;;;;;;;;5083900;28;20024;-84
2021/01/22 12:44:46;;;;;;;3.30;1.30;;;;;;;;;;5101989;28;20460;-84
2021/01/22 12:47:12;;;;;;;5.93;2.58;;;;;;;;;;5099261;28;20503;-84
2021/01/22 12:49:38;;;;;;;3.95;1.77;;;;;;;;;;5105211;28;20107;-84
2021/01/22 12:52:04;;;;;;;2.45;0.95;;;;;;;;;;5085159;28;20110;-84
2021/01/22 12:54:29;;;;;;;1.25;0.57;;;;;;;;;;5104310;28;20027;-83
2021/01/22 12:56:55;;;;;;;1.85;0.65;;;;;;;;;;5101091;28;20390;-83
2021/01/22 12:59:21;;;;;;;1.33;0.60;;;;;;;;;;5079371;28;20122;-83
2021/01/22 13:01:46;;;;;;;2.05;0.70;;;;;;;;;;5080327;28;20119;-83
2021/01/22 13:04:12;;;;;;;3.00;0.90;;;;;;;;;;5071487;28;20047;-83
2021/01/22 13:06:38;;;;;;;2.38;0.73;;;;;;;;;;5090320;28;20399;-84
2021/01/22 13:09:03;;;;;;;3.05;1.20;;;;;;;;;;5092141;28;20138;-83
2021/01/22 13:11:29;;;;;;;2.97;1.20;;;;;;;;;;5088801;28;20056;-83
2021/01/22 13:13:54;;;;;;;3.88;1.20;;;;;;;;;;5074199;28;20164;-83
2021/01/22 13:16:20;;;;;;;2.67;0.70;;;;;;;;;;5086705;28;20098;-82
2021/01/22 13:18:46;;;;;;;2.08;0.70;;;;;;;;;;5089112;28;20020;-83
2021/01/22 13:21:12;;;;;;;1.83;0.82;;;;;;;;;;5073217;28;20020;-83
2021/01/22 13:23:41;;;;;;;3.38;1.20;;;;;;;;;;5069413;28;20033;-84
2021/01/22 13:26:06;;;;;;;2.50;0.93;;;;;;;;;;5089812;28;20024;-83
2021/01/22 13:28:32;;;;;;;2.28;1.02;;;;;;;;;;5086861;28;20558;-83
2021/01/22 13:30:58;;;;;;;3.28;1.45;;;;;;;;;;5088757;28;20030;-83
2021/01/22 13:33:23;;;;;;;4.10;1.63;;;;;;;;;;5083971;28;20098;-85
2021/01/22 13:35:49;;;;;;;5.93;2.40;;;;;;;;;;5071022;28;20123;-83
2021/01/22 13:38:15;;;;;;;3.55;1.55;;;;;;;;;;5086839;28;20114;-84
2021/01/22 13:40:40;;;;;;;2.53;1.20;;;;;;;;;;5070642;28;20025;-84
2021/01/22 13:43:06;;;;;;;3.30;0.82;;;;;;;;;;5091704;28;20385;-84
2021/01/22 13:45:32;;;;;;;1.92;0.80;;;;;;;;;;5090400;28;20020;-79
2021/01/22 13:47:58;;;;;;;3.53;1.50;;;;;;;;;;5088701;28;20028;-83
2021/01/22 13:50:23;;;;;;;4.72;2.00;;;;;;;;;;5066252;28;20531;-84
2021/01/22 13:52:49;;;;;;;3.42;1.75;;;;;;;;;;5068629;28;20510;-84
2021/01/22 13:55:15;;;;;;;2.40;1.10;;;;;;;;;;5070081;28;20034;-84
2021/01/22 13:57:41;;;;;;;2.30;1.13;;;;;;;;;;5087748;28;20381;-84
2021/01/22 14:00:07;;;;;;;3.42;1.30;;;;;;;;;;5067326;28;20071;-84
2021/01/22 14:02:32;;;;;;;2.40;1.15;;;;;;;;;;5087152;28;20020;-83
2021/01/22 14:04:59;;;;;;;1.50;0.70;;;;;;;;;;5085468;28;20059;-84
2021/01/22 14:07:24;;;;;;;4.15;1.20;;;;;;;;;;5070937;28;20036;-84
2021/01/22 14:09:50;;;;;;;4.82;1.73;;;;;;;;;;5087288;28;20364;-84
2021/01/22 14:12:16;;;;;;;3.28;1.60;;;;;;;;;;5089555;28;20527;-83
2021/01/22 14:14:41;;;;;;;2.30;1.10;;;;;;;;;;5067924;28;20542;-83
2021/01/22 14:17:07;;;;;;;2.38;1.10;;;;;;;;;;5087272;28;20103;-83
2021/01/22 14:19:33;;;;;;;3.00;1.33;;;;;;;;;;5066525;28;20021;-83
2021/01/22 14:21:58;;;;;;;3.78;1.45;;;;;;;;;;5087827;28;20115;-84
2021/01/22 14:24:24;;;;;;;3.35;1.30;;;;;;;;;;5090678;28;20364;-82
2021/01/22 14:26:50;;;;;;;2.88;1.13;;;;;;;;;;5090603;28;20031;-82
2021/01/22 14:29:15;;;;;;;1.48;0.70;;;;;;;;;;5072809;28;20483;-84
2021/01/22 14:31:41;;;;;;;5.68;1.88;;;;;;;;;;5091518;28;20495;-83
2021/01/22 14:34:07;;;;;;;2.08;0.98;;;;;;;;;;5068952;28;20772;-83
2021/01/22 14:36:32;;;;;;;1.33;0.60;;;;;;;;;;5084998;28;20374;-82
2021/01/22 14:38:58;;;;;;;1.13;0.50;;;;;;;;;;5074695;28;20030;-83
2021/01/22 14:41:24;;;;;;;1.90;0.50;;;;;;;;;;5083982;28;20107;-83
2021/01/22 14:43:49;;;;;;;1.55;0.80;;;;;;;;;;5087478;28;20072;-83
2021/01/22 14:46:15;;;;;;;2.13;0.43;;;;;;;;;;5089307;28;20024;-82
2021/01/22 14:48:41;;;;;;;4.70;2.92;;;;;;;;;;5087614;28;20020;-82
2021/01/22 14:51:06;;;;;;;3.17;1.90;;;;;;;;;;5084838;28;20016;-83
2021/01/22 14:53:32;;;;;;;2.40;1.10;;;;;;;;;;5090893;28;20027;-82
2021/01/22 14:55:58;;;;;;;2.88;0.80;;;;;;;;;;5080055;28;20057;-83
2021/01/22 14:58:23;;;;;;;2.20;1.15;;;;;;;;;;5083423;28;20107;-82
2021/01/22 15:00:49;;;;;;;5.85;3.65;;;;;;;;;;5067046;28;20063;-82
2021/01/22 15:03:15;;;;;;;13.35;7.57;;;;;;;;;;5087941;28;20020;-83
2021/01/22 15:05:40;;;;;;;12.55;7.35;;;;;;;;;;5087482;28;20377;-82
2021/01/22 15:08:06;;;;;;;3.78;2.38;;;;;;;;;;5087022;28;20103;-82
2021/01/22 15:10:32;;;;;;;3.00;1.25;;;;;;;;;;5091401;28;20077;-82
2021/01/22 15:12:58;;;;;;;6.97;3.95;;;;;;;;;;5088602;28;20094;-84
2021/01/22 15:15:23;;;;;;;4.65;2.38;;;;;;;;;;5086262;28;20429;-82
2021/01/22 15:20:07;;;;;;;10.80;7.20;;;;;;;;;;5090258;28;20433;-82
2021/01/22 15:22:33;;;;;;;10.65;7.22;;;;;;;;;;5067109;28;20041;-82
2021/01/22 15:24:59;;;;;;;10.63;7.35;;;;;;;;;;5068471;28;20060;-82
2021/01/22 15:27:25;;;;;;;4.85;3.47;;;;;;;;;;5047583;28;20457;-82
2021/01/22 15:29:50;;;;;;;4.78;2.42;;;;;;;;;;5065197;28;20057;-80
2021/01/22 15:32:17;;;;;;;5.57;3.38;;;;;;;;;;5065903;28;20091;-79
2021/01/22 15:34:43;;;;;;;9.70;4.22;;;;;;;;;;5069792;28;20025;-82
2021/01/22 15:37:08;;;;;;;6.80;3.05;;;;;;;;;;5048702;28;20519;-82
2021/01/22 15:39:34;;;;;;;5.80;3.00;;;;;;;;;;5079721;28;20115;-82
2021/01/22 15:41:59;;;;;;;5.63;2.95;;;;;;;;;;5082566;28;20115;-82
2021/01/22 15:44:25;;;;;;;5.63;1.80;;;;;;;;;;5079225;28;20057;-81
2021/01/22 15:46:51;;;;;;;3.95;1.65;;;;;;;;;;5077387;28;20027;-82
2021/01/22 15:49:16;;;;;;;4.10;1.85;;;;;;;;;;5060696;28;20099;-82
2021/01/22 15:51:42;;;;;;;3.50;1.63;;;;;;;;;;5080373;28;20052;-82
2021/01/22 15:54:08;;;;;;;3.45;1.70;;;;;;;;;;5049138;28;20078;-82
2021/01/22 15:56:33;;;;;;;2.95;1.38;;;;;;;;;;5061282;28;20091;-82
2021/01/22 15:58:59;;;;;;;1.98;1.00;;;;;;;;;;5072318;28;20032;-82
2021/01/22 16:01:25;;;;;;;3.00;1.10;;;;;;;;;;5065438;28;20112;-82
2021/01/22 16:03:50;;;;;;;4.20;1.95;;;;;;;;;;5050489;28;20025;-82
2021/01/22 16:06:16;;;;;;;4.63;2.38;;;;;;;;;;5066256;28;20055;-82
2021/01/22 16:08:43;;;;;;;5.90;2.03;;;;;;;;;;5062238;28;20028;-81
2021/01/22 16:11:09;;;;;;;3.63;1.88;;;;;;;;;;5060638;28;20384;-82
2021/01/22 16:13:35;;;;;;;3.92;2.00;;;;;;;;;;5047237;28;20036;-81
2021/01/22 16:16:00;;;;;;;5.35;1.67;;;;;;;;;;5063252;28;20111;-82
2021/01/22 16:18:26;;;;;;;3.90;1.55;;;;;;;;;;5043662;28;20025;-82
2021/01/22 16:20:52;;;;;;;4.20;1.52;;;;;;;;;;5067656;28;20115;-82
2021/01/22 16:23:18;;;;;;;8.18;1.98;;;;;;;;;;5064471;28;20020;-83
2021/01/22 16:25:44;;;;;;;5.13;2.05;;;;;;;;;;5064154;28;20028;-82
2021/01/22 16:28:09;;;;;;;5.65;2.53;;;;;;;;;;5046058;28;20021;-82
2021/01/22 16:30:37;;;;;;;6.03;2.22;;;;;;;;;;5059007;28;20431;-82
2021/01/22 16:33:02;;;;;;;6.53;2.58;;;;;;;;;;5054583;28;20078;-82
2021/01/22 16:35:28;;;;;;;5.35;2.45;;;;;;;;;;5035326;28;20068;-82
2021/01/22 16:37:54;;;;;;;3.90;2.05;;;;;;;;;;5052924;28;20036;-82
2021/01/22 16:40:19;;;;;;;3.15;1.80;;;;;;;;;;5051013;28;20047;-83
2021/01/22 16:42:45;;;;;;;4.50;2.40;;;;;;;;;;5056994;28;20104;-82
2021/01/22 16:45:11;;;;;;;6.03;3.90;;;;;;;;;;5054379;28;20048;-82
2021/01/22 16:47:38;;;;;;;3.65;2.22;;;;;;;;;;5058405;28;20049;-82
2021/01/22 16:52:22;;;;;;;3.78;1.60;;;;;;;;;;5086862;28;20361;-82
2021/01/22 16:54:48;;;;;;;3.20;1.52;;;;;;;;;;5066108;28;20031;-82
2021/01/22 16:57:14;;;;;;;4.90;2.15;;;;;;;;;;5067771;28;20025;-81
2021/01/22 16:59:40;;;;;;;2.97;1.75;;;;;;;;;;5063188;28;20021;-82
2021/01/22 17:02:06;;;;;;;3.03;1.30;;;;;;;;;;5055257;28;20382;-82
2021/01/22 17:04:31;;;;;;;2.42;1.40;;;;;;;;;;5063930;28;20056;-82
2021/01/22 17:06:57;;;;;;;2.70;1.30;;;;;;;;;;5063250;28;20108;-83
2021/01/22 17:09:23;;;;;;;3.45;1.35;;;;;;;;;;5054674;28;20648;-83
2021/01/22 17:11:49;;;;;;;5.18;1.80;;;;;;;;;;5048810;28;20029;-83
2021/01/22 17:14:14;;;;;;;16.60;4.43;;;;;;;;;;5042845;28;20040;-83
2021/01/22 17:16:40;;;;;;;7.20;3.05;;;;;;;;;;5069709;28;20025;-83
2021/01/22 17:19:06;;;;;;;7.43;3.78;;;;;;;;;;5044482;28;20407;-82
2021/01/22 17:21:32;;;;;;;8.75;3.30;;;;;;;;;;5065408;28;20042;-83
2021/01/22 17:23:57;;;;;;;5.90;2.25;;;;;;;;;;5067267;28;20025;-83
2021/01/22 17:26:23;;;;;;;3.53;2.30;;;;;;;;;;5055183;28;20677;-83
2021/01/22 17:28:49;;;;;;;3.72;1.92;;;;;;;;;;5051569;28;20039;-83
2021/01/22 17:31:14;;;;;;;5.90;2.17;;;;;;;;;;5062011;28;20029;-82
2021/01/22 17:33:40;;;;;;;3.55;1.85;;;;;;;;;;5060409;28;20043;-81
2021/01/22 17:36:06;;;;;;;3.08;1.52;;;;;;;;;;5060959;28;20050;-84
2021/01/22 17:38:32;;;;;;;3.35;1.65;;;;;;;;;;5052301;28;20056;-83
2021/01/22 17:40:58;;;;;;;3.42;1.90;;;;;;;;;;5044961;28;20028;-83
2021/01/22 17:43:23;;;;;;;3.42;1.75;;;;;;;;;;5040105;28;20033;-82
2021/01/22 17:45:49;;;;;;;3.80;1.75;;;;;;;;;;5071476;28;20031;-83
2021/01/22 17:48:15;;;;;;;4.20;1.95;;;;;;;;;;5093453;28;20047;-84
2021/01/22 17:50:40;;;;;;;3.05;1.70;;;;;;;;;;5072083;28;20052;-83
2021/01/22 17:53:06;;;;;;;2.75;1.50;;;;;;;;;;5067078;28;20044;-84
2021/01/22 17:55:33;;;;;;;3.38;2.05;;;;;;;;;;5076521;28;20045;-83
2021/01/22 17:57:59;;;;;;;4.43;1.90;;;;;;;;;;5082260;28;20012;-84
2021/01/22 18:00:26;;;;;;;6.13;1.95;;;;;;;;;;5075462;28;20060;-83
2021/01/22 18:05:36;;;;;;;3.55;2.00;;;;;;;;;;5054746;28;20045;-83
2021/01/22 18:08:29;;;;;;;3.67;1.70;;;;;;;;;;5038510;28;20055;-83
2021/01/22 18:11:43;;;;;;;5.03;2.05;;;;;;;;;;5050708;28;20025;-83
2021/01/22 18:38:18;;;;;;;8.48;4.00;;;;;;;;;;5120974;27;20367;-81
2021/01/22 18:40:44;;;;;;;4.82;2.70;;;;;;;;;;5102983;28;20039;-82
2021/01/22 18:43:10;;;;;;;7.25;3.45;;;;;;;;;;5110413;28;20020;-83
2021/01/22 18:45:35;;;;;;;6.32;3.10;;;;;;;;;;5111512;28;20008;-83
2021/01/22 18:48:01;;;;;;;5.75;3.67;;;;;;;;;;5110677;28;20057;-84
2021/01/22 18:50:27;;;;;;;5.20;3.03;;;;;;;;;;5095522;28;20047;-85
2021/01/22 18:52:53;;;;;;;7.80;4.30;;;;;;;;;;5109884;28;20126;-85
2021/01/22 18:55:18;;;;;;;9.30;4.72;;;;;;;;;;5102530;28;20012;-84
2021/01/22 18:57:44;;;;;;;16.75;7.55;;;;;;;;;;5108952;28;20027;-83
2021/01/22 19:00:10;;;;;;;16.20;9.70;;;;;;;;;;5109985;28;20080;-84
2021/01/22 19:02:36;;;;;;;12.02;7.15;;;;;;;;;;5108278;28;20076;-83
2021/01/22 19:05:01;;;;;;;9.38;4.85;;;;;;;;;;5108130;28;20008;-83
2021/01/22 19:07:27;;;;;;;9.93;5.25;;;;;;;;;;5101062;28;20016;-82
2021/01/22 19:09:53;;;;;;;5.85;3.80;;;;;;;;;;5103495;28;20036;-82
2021/01/22 19:12:18;;;;;;;5.25;3.05;;;;;;;;;;5100946;28;20651;-83
2021/01/22 19:14:44;;;;;;;4.72;2.50;;;;;;;;;;5087542;28;20020;-83
2021/01/22 19:17:10;;;;;;;4.95;2.33;;;;;;;;;;5098325;28;20491;-83
2021/01/22 19:19:35;;;;;;;5.15;2.60;;;;;;;;;;5099586;28;20547;-84
2021/01/22 19:22:02;;;;;;;7.80;2.72;;;;;;;;;;5108246;28;20058;-85
2021/01/22 19:24:28;;;;;;;4.78;1.90;;;;;;;;;;5095739;28;20020;-84
2021/01/22 19:26:53;;;;;;;5.38;3.00;;;;;;;;;;5096805;28;20075;-84
2021/01/22 19:29:19;;;;;;;5.82;2.70;;;;;;;;;;5105749;28;20123;-84
2021/01/22 19:31:45;;;;;;;4.53;2.63;;;;;;;;;;5106265;28;20135;-84
2021/01/22 19:34:10;;;;;;;5.40;2.85;;;;;;;;;;5109086;28;20128;-84
2021/01/22 19:36:36;;;;;;;4.50;2.40;;;;;;;;;;5100963;28;20028;-83
2021/01/22 19:39:03;;;;;;;3.95;2.00;;;;;;;;;;5097397;28;20059;-83
2021/01/22 19:41:29;;;;;;;5.43;2.90;;;;;;;;;;5104566;28;20020;-85
2021/01/22 19:43:54;;;;;;;4.38;2.33;;;;;;;;;;5099556;28;20028;-84
2021/01/22 19:46:20;;;;;;;4.47;2.00;;;;;;;;;;5098191;28;20029;-85
2021/01/22 19:48:46;;;;;;;10.30;5.13;;;;;;;;;;5093987;28;20028;-85
2021/01/22 19:51:12;;;;;;;15.32;6.50;;;;;;;;;;5086437;28;20129;-85
2021/01/22 19:53:37;;;;;;;7.70;4.25;;;;;;;;;;5085492;28;20059;-85
2021/01/22 19:56:06;;;;;;;5.70;3.40;;;;;;;;;;5079003;28;20418;-84
2021/01/22 19:58:32;;;;;;;5.75;2.40;;;;;;;;;;5073832;28;20035;-84
2021/01/22 20:03:16;;;;;;;15.48;6.75;;;;;;;;;;5092778;28;20400;-82
2021/01/22 20:05:42;;;;;;;17.83;9.48;;;;;;;;;;5089690;28;20032;-83
2021/01/22 20:08:08;;;;;;;42.50;19.52;;;;;;;;;;5088101;28;20486;-84
2021/01/22 20:10:33;;;;;;;54.25;25.73;;;;;;;;;;5072698;28;20070;-84
2021/01/22 20:13:02;;;;;;;37.10;19.00;;;;;;;;;;5075638;28;20082;-84
2021/01/22 20:15:31;;;;;;;11.75;7.25;;;;;;;;;;5074493;28;20541;-83
2021/01/22 20:17:57;;;;;;;10.23;5.05;;;;;;;;;;5075354;28;20024;-84
2021/01/22 20:20:23;;;;;;;10.10;5.43;;;;;;;;;;5068643;28;20439;-84
2021/01/22 20:22:50;;;;;;;14.07;7.75;;;;;;;;;;5098021;28;20581;-84
2021/01/22 20:25:18;;;;;;;7.88;4.85;;;;;;;;;;5093979;28;20125;-84
2021/01/22 20:27:44;;;;;;;7.50;3.92;;;;;;;;;;5068654;28;20028;-84
2021/01/22 20:30:10;;;;;;;9.30;5.25;;;;;;;;;;5085733;28;20108;-83
2021/01/22 20:32:36;;;;;;;9.85;5.35;;;;;;;;;;5070898;28;21014;-83
2021/01/22 20:35:01;;;;;;;12.85;7.45;;;;;;;;;;5066180;28;20509;-84
2021/01/22 20:37:27;;;;;;;12.75;6.32;;;;;;;;;;5073853;28;20056;-84
2021/01/22 20:39:53;;;;;;;12.20;6.25;;;;;;;;;;5076062;28;20020;-85
2021/01/22 20:42:19;;;;;;;8.40;4.70;;;;;;;;;;5088686;28;20068;-84
2021/01/22 20:44:44;;;;;;;16.15;7.18;;;;;;;;;;5075722;28;20036;-83
2021/01/22 20:47:11;;;;;;;12.52;6.60;;;;;;;;;;5065720;28;20096;-83
2021/01/22 20:49:37;;;;;;;9.85;6.15;;;;;;;;;;5080728;28;20039;-83
2021/01/22 20:52:03;;;;;;;9.98;5.50;;;;;;;;;;5084236;28;20028;-83
2021/01/22 20:54:30;;;;;;;10.85;6.20;;;;;;;;;;5067543;28;20033;-82
2021/01/22 20:56:59;;;;;;;8.63;5.45;;;;;;;;;;5097598;28;20031;-82
2021/01/22 20:59:28;;;;;;;7.68;5.03;;;;;;;;;;5097620;28;20017;-82
2021/01/22 21:01:54;;;;;;;7.22;3.53;;;;;;;;;;5087881;28;20024;-82